VTBU/UTP METAR and TAF weather

Enter ICAO airport designator
Station Type Date Time Source
VTBU METAR 2021/05/14 04:00 UTC NOAA

VTBU 140400Z 15007KT 110V190 9999 FEW020 33/26 Q1008 NOSIG


Station Type Date Time Source
VTBU Decoded METAR 2021/05/14 04:00 UTC NOAA

Rayong, Thailand (VTBU) 12-38N 101-21E 5M
May 14, 2021 - 12:00 AM EDT / 2021.05.14 0400 UTC
Wind: from the SSE (150 degrees) at 8 MPH (7 KT) (direction variable):0
Visibility: greater than 7 mile(s):0
Sky conditions: mostly clear
Temperature: 91 F (33 C)
Heat index: 106.2 F (41.2 C):1
Dew Point: 78 F (26 C)
Relative Humidity: 66%
Pressure (altimeter): 29.77 in. Hg (1008 hPa)
ob: VTBU 140400Z 15007KT 110V190 9999 FEW020 33/26 Q1008 NOSIG
cycle: 4

Station Type Date Time Source
VTBU TAF 2021/05/13 18:36 UTC NOAA

TAF VTBU 131700Z 1318/1418 19006KT 9999 FEW020

Example: see airport list